sensor_id;sensor_type;location;lat;lon;timestamp;P1;durP1;ratioP1;P2;durP2;ratioP2
19595;SDS011;9945;46.010;8.946;2022-12-17T00:00:23;25.53;;;17.00;;
19595;SDS011;9945;46.010;8.946;2022-12-17T00:03:09;29.67;;;17.17;;
19595;SDS011;9945;46.010;8.946;2022-12-17T00:05:53;24.07;;;16.00;;
19595;SDS011;9945;46.010;8.946;2022-12-17T00:08:38;21.70;;;14.30;;
19595;SDS011;9945;46.010;8.946;2022-12-17T00:11:22;24.40;;;15.83;;
19595;SDS011;9945;46.010;8.946;2022-12-17T00:14:06;22.93;;;15.17;;
19595;SDS011;9945;46.010;8.946;2022-12-17T00:16:51;25.00;;;15.43;;
19595;SDS011;9945;46.010;8.946;2022-12-17T00:19:37;24.33;;;16.63;;
19595;SDS011;9945;46.010;8.946;2022-12-17T00:22:21;21.40;;;13.90;;
19595;SDS011;9945;46.010;8.946;2022-12-17T00:25:08;25.30;;;15.77;;
19595;SDS011;9945;46.010;8.946;2022-12-17T00:27:52;28.67;;;15.63;;
19595;SDS011;9945;46.010;8.946;2022-12-17T00:30:36;23.20;;;15.03;;
19595;SDS011;9945;46.010;8.946;2022-12-17T00:33:21;34.90;;;14.87;;
19595;SDS011;9945;46.010;8.946;2022-12-17T00:36:07;22.63;;;15.50;;
19595;SDS011;9945;46.010;8.946;2022-12-17T00:38:51;33.90;;;15.67;;
19595;SDS011;9945;46.010;8.946;2022-12-17T00:41:35;24.20;;;15.57;;
19595;SDS011;9945;46.010;8.946;2022-12-17T00:44:20;27.63;;;14.97;;
19595;SDS011;9945;46.010;8.946;2022-12-17T00:47:04;23.17;;;14.77;;
19595;SDS011;9945;46.010;8.946;2022-12-17T00:49:53;22.77;;;14.67;;
19595;SDS011;9945;46.010;8.946;2022-12-17T00:52:39;25.27;;;15.47;;
19595;SDS011;9945;46.010;8.946;2022-12-17T00:55:35;25.63;;;14.63;;
19595;SDS011;9945;46.010;8.946;2022-12-17T00:58:20;23.37;;;14.57;;
19595;SDS011;9945;46.010;8.946;2022-12-17T01:01:04;23.10;;;15.30;;
19595;SDS011;9945;46.010;8.946;2022-12-17T01:03:48;21.33;;;14.20;;
19595;SDS011;9945;46.010;8.946;2022-12-17T01:06:33;21.37;;;14.53;;
19595;SDS011;9945;46.010;8.946;2022-12-17T01:09:18;22.73;;;14.43;;
19595;SDS011;9945;46.010;8.946;2022-12-17T01:12:03;22.27;;;14.40;;
19595;SDS011;9945;46.010;8.946;2022-12-17T01:14:47;18.17;;;12.17;;
19595;SDS011;9945;46.010;8.946;2022-12-17T01:17:32;19.73;;;13.50;;
19595;SDS011;9945;46.010;8.946;2022-12-17T01:20:16;19.67;;;13.10;;
19595;SDS011;9945;46.010;8.946;2022-12-17T01:23:05;22.00;;;13.17;;
19595;SDS011;9945;46.010;8.946;2022-12-17T01:25:55;19.67;;;13.20;;
19595;SDS011;9945;46.010;8.946;2022-12-17T01:28:40;21.87;;;14.07;;
19595;SDS011;9945;46.010;8.946;2022-12-17T01:31:25;19.43;;;12.77;;
19595;SDS011;9945;46.010;8.946;2022-12-17T01:34:10;19.33;;;13.53;;
19595;SDS011;9945;46.010;8.946;2022-12-17T01:36:54;20.93;;;12.87;;
19595;SDS011;9945;46.010;8.946;2022-12-17T01:39:38;18.03;;;12.83;;
19595;SDS011;9945;46.010;8.946;2022-12-17T01:42:24;20.93;;;13.27;;
19595;SDS011;9945;46.010;8.946;2022-12-17T01:45:09;20.37;;;12.63;;
19595;SDS011;9945;46.010;8.946;2022-12-17T01:47:55;18.20;;;11.80;;
19595;SDS011;9945;46.010;8.946;2022-12-17T01:50:52;17.57;;;12.20;;
19595;SDS011;9945;46.010;8.946;2022-12-17T01:53:39;18.17;;;12.03;;
19595;SDS011;9945;46.010;8.946;2022-12-17T01:56:26;15.27;;;11.63;;
19595;SDS011;9945;46.010;8.946;2022-12-17T01:59:12;19.03;;;12.77;;
19595;SDS011;9945;46.010;8.946;2022-12-17T02:01:58;16.17;;;11.33;;
19595;SDS011;9945;46.010;8.946;2022-12-17T02:04:42;16.93;;;11.57;;
19595;SDS011;9945;46.010;8.946;2022-12-17T02:07:33;17.20;;;11.13;;
19595;SDS011;9945;46.010;8.946;2022-12-17T02:10:31;16.27;;;10.77;;
19595;SDS011;9945;46.010;8.946;2022-12-17T02:13:20;17.17;;;10.97;;
19595;SDS011;9945;46.010;8.946;2022-12-17T02:16:13;17.57;;;11.07;;
19595;SDS011;9945;46.010;8.946;2022-12-17T02:19:03;17.90;;;11.07;;
19595;SDS011;9945;46.010;8.946;2022-12-17T02:21:57;17.23;;;10.70;;
19595;SDS011;9945;46.010;8.946;2022-12-17T02:24:52;14.30;;;10.53;;
19595;SDS011;9945;46.010;8.946;2022-12-17T02:27:43;14.37;;;10.27;;
19595;SDS011;9945;46.010;8.946;2022-12-17T02:30:27;14.90;;;10.60;;
19595;SDS011;9945;46.010;8.946;2022-12-17T02:33:14;14.93;;;10.73;;
19595;SDS011;9945;46.010;8.946;2022-12-17T02:36:01;19.23;;;11.63;;
19595;SDS011;9945;46.010;8.946;2022-12-17T02:38:48;15.57;;;10.83;;
19595;SDS011;9945;46.010;8.946;2022-12-17T02:41:34;19.17;;;11.93;;
19595;SDS011;9945;46.010;8.946;2022-12-17T02:44:23;15.70;;;10.67;;
19595;SDS011;9945;46.010;8.946;2022-12-17T02:47:09;13.83;;;10.60;;
19595;SDS011;9945;46.010;8.946;2022-12-17T02:49:54;13.77;;;10.60;;
19595;SDS011;9945;46.010;8.946;2022-12-17T02:52:39;16.57;;;10.93;;
19595;SDS011;9945;46.010;8.946;2022-12-17T02:55:28;16.63;;;10.40;;
19595;SDS011;9945;46.010;8.946;2022-12-17T02:58:12;34.83;;;10.57;;
19595;SDS011;9945;46.010;8.946;2022-12-17T03:00:58;21.77;;;11.43;;
19595;SDS011;9945;46.010;8.946;2022-12-17T03:03:42;13.87;;;10.60;;
19595;SDS011;9945;46.010;8.946;2022-12-17T03:06:27;17.17;;;11.60;;
19595;SDS011;9945;46.010;8.946;2022-12-17T03:09:11;18.87;;;11.50;;
19595;SDS011;9945;46.010;8.946;2022-12-17T03:11:55;15.67;;;10.77;;
19595;SDS011;9945;46.010;8.946;2022-12-17T03:14:40;17.87;;;11.10;;
19595;SDS011;9945;46.010;8.946;2022-12-17T03:17:27;16.83;;;11.07;;
19595;SDS011;9945;46.010;8.946;2022-12-17T03:20:11;15.27;;;10.90;;
19595;SDS011;9945;46.010;8.946;2022-12-17T03:23:00;17.17;;;11.20;;
19595;SDS011;9945;46.010;8.946;2022-12-17T03:25:45;15.83;;;10.97;;
19595;SDS011;9945;46.010;8.946;2022-12-17T03:28:29;19.10;;;11.90;;
19595;SDS011;9945;46.010;8.946;2022-12-17T03:31:13;13.77;;;10.10;;
19595;SDS011;9945;46.010;8.946;2022-12-17T03:33:58;15.50;;;11.60;;
19595;SDS011;9945;46.010;8.946;2022-12-17T03:36:42;14.90;;;10.70;;
19595;SDS011;9945;46.010;8.946;2022-12-17T03:39:27;17.63;;;11.90;;
19595;SDS011;9945;46.010;8.946;2022-12-17T03:42:11;17.67;;;11.57;;
19595;SDS011;9945;46.010;8.946;2022-12-17T03:44:56;19.23;;;12.57;;
19595;SDS011;9945;46.010;8.946;2022-12-17T03:47:40;19.87;;;12.57;;
19595;SDS011;9945;46.010;8.946;2022-12-17T03:50:26;18.10;;;12.57;;
19595;SDS011;9945;46.010;8.946;2022-12-17T03:53:10;17.10;;;12.73;;
19595;SDS011;9945;46.010;8.946;2022-12-17T03:55:55;18.70;;;12.80;;
19595;SDS011;9945;46.010;8.946;2022-12-17T03:58:40;26.37;;;13.50;;
19595;SDS011;9945;46.010;8.946;2022-12-17T04:01:24;15.97;;;12.97;;
19595;SDS011;9945;46.010;8.946;2022-12-17T04:04:08;18.57;;;13.00;;
19595;SDS011;9945;46.010;8.946;2022-12-17T04:06:54;26.20;;;12.47;;
19595;SDS011;9945;46.010;8.946;2022-12-17T04:09:38;17.50;;;12.37;;
19595;SDS011;9945;46.010;8.946;2022-12-17T04:12:22;18.10;;;12.07;;
19595;SDS011;9945;46.010;8.946;2022-12-17T04:15:07;17.13;;;12.57;;
19595;SDS011;9945;46.010;8.946;2022-12-17T04:17:51;32.50;;;13.03;;
19595;SDS011;9945;46.010;8.946;2022-12-17T04:20:36;18.43;;;12.33;;
19595;SDS011;9945;46.010;8.946;2022-12-17T04:23:21;20.10;;;12.90;;
19595;SDS011;9945;46.010;8.946;2022-12-17T04:26:06;17.20;;;12.13;;
19595;SDS011;9945;46.010;8.946;2022-12-17T04:28:50;18.20;;;12.87;;
19595;SDS011;9945;46.010;8.946;2022-12-17T04:31:35;16.67;;;11.67;;
19595;SDS011;9945;46.010;8.946;2022-12-17T04:34:19;14.63;;;11.77;;
19595;SDS011;9945;46.010;8.946;2022-12-17T04:37:03;16.53;;;13.20;;
19595;SDS011;9945;46.010;8.946;2022-12-17T04:39:49;16.83;;;12.77;;
19595;SDS011;9945;46.010;8.946;2022-12-17T04:42:33;42.83;;;13.40;;
19595;SDS011;9945;46.010;8.946;2022-12-17T04:45:18;18.67;;;13.80;;
19595;SDS011;9945;46.010;8.946;2022-12-17T04:48:03;18.03;;;13.53;;
19595;SDS011;9945;46.010;8.946;2022-12-17T04:50:45;17.87;;;13.97;;
19595;SDS011;9945;46.010;8.946;2022-12-17T04:53:29;30.27;;;13.57;;
19595;SDS011;9945;46.010;8.946;2022-12-17T04:56:15;26.47;;;12.87;;
19595;SDS011;9945;46.010;8.946;2022-12-17T04:58:59;17.57;;;13.50;;
19595;SDS011;9945;46.010;8.946;2022-12-17T05:01:44;20.53;;;14.30;;
19595;SDS011;9945;46.010;8.946;2022-12-17T05:04:28;17.33;;;12.80;;
19595;SDS011;9945;46.010;8.946;2022-12-17T05:07:13;28.13;;;14.23;;
19595;SDS011;9945;46.010;8.946;2022-12-17T05:09:57;19.60;;;13.47;;
19595;SDS011;9945;46.010;8.946;2022-12-17T05:12:42;21.37;;;14.67;;
19595;SDS011;9945;46.010;8.946;2022-12-17T05:15:29;22.53;;;13.57;;
19595;SDS011;9945;46.010;8.946;2022-12-17T05:18:13;20.63;;;13.70;;
19595;SDS011;9945;46.010;8.946;2022-12-17T05:20:57;42.13;;;14.43;;
19595;SDS011;9945;46.010;8.946;2022-12-17T05:23:42;20.57;;;13.43;;
19595;SDS011;9945;46.010;8.946;2022-12-17T05:26:27;41.93;;;14.83;;
19595;SDS011;9945;46.010;8.946;2022-12-17T05:29:13;18.20;;;13.20;;
19595;SDS011;9945;46.010;8.946;2022-12-17T05:31:57;17.07;;;13.23;;
19595;SDS011;9945;46.010;8.946;2022-12-17T05:34:41;20.13;;;13.10;;
19595;SDS011;9945;46.010;8.946;2022-12-17T05:37:26;15.57;;;11.93;;
19595;SDS011;9945;46.010;8.946;2022-12-17T05:40:10;20.80;;;13.30;;
19595;SDS011;9945;46.010;8.946;2022-12-17T05:42:55;17.37;;;11.83;;
19595;SDS011;9945;46.010;8.946;2022-12-17T05:45:42;28.17;;;13.77;;
19595;SDS011;9945;46.010;8.946;2022-12-17T05:48:27;22.53;;;13.30;;
19595;SDS011;9945;46.010;8.946;2022-12-17T05:51:12;17.57;;;11.67;;
19595;SDS011;9945;46.010;8.946;2022-12-17T05:53:56;17.43;;;12.60;;
19595;SDS011;9945;46.010;8.946;2022-12-17T05:56:41;18.10;;;13.40;;
19595;SDS011;9945;46.010;8.946;2022-12-17T05:59:25;19.40;;;13.50;;
19595;SDS011;9945;46.010;8.946;2022-12-17T06:02:12;16.73;;;12.33;;
19595;SDS011;9945;46.010;8.946;2022-12-17T06:04:59;19.00;;;12.83;;
19595;SDS011;9945;46.010;8.946;2022-12-17T06:07:43;20.73;;;12.37;;
19595;SDS011;9945;46.010;8.946;2022-12-17T06:10:42;15.13;;;11.13;;
19595;SDS011;9945;46.010;8.946;2022-12-17T06:13:26;14.37;;;11.33;;
19595;SDS011;9945;46.010;8.946;2022-12-17T06:16:13;28.43;;;12.93;;
19595;SDS011;9945;46.010;8.946;2022-12-17T06:18:58;14.73;;;11.27;;
19595;SDS011;9945;46.010;8.946;2022-12-17T06:21:43;15.30;;;11.00;;
19595;SDS011;9945;46.010;8.946;2022-12-17T06:24:27;14.17;;;10.70;;
19595;SDS011;9945;46.010;8.946;2022-12-17T06:27:12;19.30;;;12.07;;
19595;SDS011;9945;46.010;8.946;2022-12-17T06:29:56;18.97;;;11.77;;
19595;SDS011;9945;46.010;8.946;2022-12-17T06:32:40;19.17;;;12.77;;
19595;SDS011;9945;46.010;8.946;2022-12-17T06:35:32;21.00;;;11.03;;
19595;SDS011;9945;46.010;8.946;2022-12-17T06:38:16;15.67;;;9.80;;
19595;SDS011;9945;46.010;8.946;2022-12-17T06:41:01;15.50;;;10.77;;
19595;SDS011;9945;46.010;8.946;2022-12-17T06:43:46;16.77;;;11.37;;
19595;SDS011;9945;46.010;8.946;2022-12-17T06:46:30;19.10;;;10.73;;
19595;SDS011;9945;46.010;8.946;2022-12-17T06:49:15;14.23;;;9.87;;
19595;SDS011;9945;46.010;8.946;2022-12-17T06:52:00;8.17;;;7.00;;
19595;SDS011;9945;46.010;8.946;2022-12-17T06:54:45;7.40;;;6.57;;
19595;SDS011;9945;46.010;8.946;2022-12-17T06:57:29;8.23;;;6.80;;
19595;SDS011;9945;46.010;8.946;2022-12-17T07:00:14;6.27;;;5.67;;
19595;SDS011;9945;46.010;8.946;2022-12-17T07:02:58;3.70;;;3.40;;
19595;SDS011;9945;46.010;8.946;2022-12-17T07:05:42;4.23;;;3.83;;
19595;SDS011;9945;46.010;8.946;2022-12-17T07:08:28;3.73;;;3.33;;
19595;SDS011;9945;46.010;8.946;2022-12-17T07:11:13;4.47;;;4.07;;
19595;SDS011;9945;46.010;8.946;2022-12-17T07:13:58;4.17;;;3.77;;
19595;SDS011;9945;46.010;8.946;2022-12-17T07:16:42;3.90;;;3.60;;
19595;SDS011;9945;46.010;8.946;2022-12-17T07:19:26;3.47;;;3.17;;
19595;SDS011;9945;46.010;8.946;2022-12-17T07:22:11;3.27;;;3.00;;
19595;SDS011;9945;46.010;8.946;2022-12-17T07:24:56;3.20;;;2.90;;
19595;SDS011;9945;46.010;8.946;2022-12-17T07:27:40;5.30;;;4.40;;
19595;SDS011;9945;46.010;8.946;2022-12-17T07:30:24;6.80;;;5.90;;
19595;SDS011;9945;46.010;8.946;2022-12-17T07:33:08;6.30;;;5.70;;
19595;SDS011;9945;46.010;8.946;2022-12-17T07:35:58;5.30;;;4.80;;
19595;SDS011;9945;46.010;8.946;2022-12-17T07:38:42;5.27;;;4.60;;
19595;SDS011;9945;46.010;8.946;2022-12-17T07:41:28;7.87;;;5.10;;
19595;SDS011;9945;46.010;8.946;2022-12-17T07:44:12;4.63;;;4.23;;
19595;SDS011;9945;46.010;8.946;2022-12-17T07:46:57;4.77;;;4.33;;
19595;SDS011;9945;46.010;8.946;2022-12-17T07:49:41;5.50;;;5.00;;
19595;SDS011;9945;46.010;8.946;2022-12-17T07:52:26;5.70;;;5.10;;
19595;SDS011;9945;46.010;8.946;2022-12-17T07:55:10;5.00;;;4.60;;
19595;SDS011;9945;46.010;8.946;2022-12-17T07:58:00;4.97;;;4.50;;
19595;SDS011;9945;46.010;8.946;2022-12-17T08:00:45;4.00;;;3.57;;
19595;SDS011;9945;46.010;8.946;2022-12-17T08:03:29;5.10;;;4.60;;
19595;SDS011;9945;46.010;8.946;2022-12-17T08:06:14;3.20;;;3.00;;
19595;SDS011;9945;46.010;8.946;2022-12-17T08:08:58;3.20;;;3.00;;
19595;SDS011;9945;46.010;8.946;2022-12-17T08:11:43;3.57;;;3.27;;
19595;SDS011;9945;46.010;8.946;2022-12-17T08:14:29;3.67;;;3.37;;
19595;SDS011;9945;46.010;8.946;2022-12-17T08:17:13;4.10;;;3.77;;
19595;SDS011;9945;46.010;8.946;2022-12-17T08:19:57;3.93;;;3.63;;
19595;SDS011;9945;46.010;8.946;2022-12-17T08:22:42;4.27;;;3.97;;
19595;SDS011;9945;46.010;8.946;2022-12-17T08:25:26;3.77;;;3.37;;
19595;SDS011;9945;46.010;8.946;2022-12-17T08:28:10;2.93;;;2.47;;
19595;SDS011;9945;46.010;8.946;2022-12-17T08:30:55;2.77;;;2.40;;
19595;SDS011;9945;46.010;8.946;2022-12-17T08:33:40;2.67;;;2.47;;
19595;SDS011;9945;46.010;8.946;2022-12-17T08:36:24;2.80;;;2.60;;
19595;SDS011;9945;46.010;8.946;2022-12-17T08:39:09;2.73;;;2.53;;
19595;SDS011;9945;46.010;8.946;2022-12-17T08:41:53;2.47;;;2.00;;
19595;SDS011;9945;46.010;8.946;2022-12-17T08:44:37;2.40;;;2.23;;
19595;SDS011;9945;46.010;8.946;2022-12-17T08:47:23;2.60;;;2.40;;
19595;SDS011;9945;46.010;8.946;2022-12-17T08:50:08;2.40;;;2.20;;
19595;SDS011;9945;46.010;8.946;2022-12-17T08:52:56;10.93;;;2.17;;
19595;SDS011;9945;46.010;8.946;2022-12-17T08:55:40;1.60;;;1.50;;
19595;SDS011;9945;46.010;8.946;2022-12-17T08:58:25;1.17;;;1.17;;
19595;SDS011;9945;46.010;8.946;2022-12-17T09:01:24;2.20;;;1.27;;
19595;SDS011;9945;46.010;8.946;2022-12-17T09:04:09;1.60;;;1.50;;
19595;SDS011;9945;46.010;8.946;2022-12-17T09:06:50;1.90;;;1.50;;
19595;SDS011;9945;46.010;8.946;2022-12-17T09:09:34;1.40;;;1.40;;
19595;SDS011;9945;46.010;8.946;2022-12-17T09:12:19;1.27;;;1.23;;
19595;SDS011;9945;46.010;8.946;2022-12-17T09:15:03;1.58;;;1.35;;
19595;SDS011;9945;46.010;8.946;2022-12-17T09:17:49;1.65;;;1.55;;
19595;SDS011;9945;46.010;8.946;2022-12-17T09:20:35;3.53;;;2.25;;
19595;SDS011;9945;46.010;8.946;2022-12-17T09:23:19;2.53;;;1.38;;
19595;SDS011;9945;46.010;8.946;2022-12-17T09:26:04;5.65;;;1.92;;
19595;SDS011;9945;46.010;8.946;2022-12-17T09:28:48;1.55;;;1.30;;
19595;SDS011;9945;46.010;8.946;2022-12-17T09:31:33;2.10;;;2.00;;
19595;SDS011;9945;46.010;8.946;2022-12-17T09:34:17;2.20;;;2.10;;
19595;SDS011;9945;46.010;8.946;2022-12-17T09:37:03;5.45;;;2.00;;
19595;SDS011;9945;46.010;8.946;2022-12-17T09:39:47;2.35;;;1.98;;
19595;SDS011;9945;46.010;8.946;2022-12-17T09:42:33;2.22;;;2.00;;
19595;SDS011;9945;46.010;8.946;2022-12-17T09:45:26;1.80;;;1.70;;
19595;SDS011;9945;46.010;8.946;2022-12-17T09:48:16;2.10;;;1.90;;
19595;SDS011;9945;46.010;8.946;2022-12-17T09:51:07;2.33;;;2.13;;
19595;SDS011;9945;46.010;8.946;2022-12-17T09:54:04;4.90;;;2.30;;
19595;SDS011;9945;46.010;8.946;2022-12-17T09:56:54;2.90;;;2.28;;
19595;SDS011;9945;46.010;8.946;2022-12-17T09:59:39;2.35;;;2.15;;
19595;SDS011;9945;46.010;8.946;2022-12-17T10:02:25;1.95;;;1.85;;
19595;SDS011;9945;46.010;8.946;2022-12-17T10:05:14;2.60;;;2.40;;
19595;SDS011;9945;46.010;8.946;2022-12-17T10:08:04;2.63;;;2.42;;
19595;SDS011;9945;46.010;8.946;2022-12-17T10:10:51;2.38;;;2.28;;
19595;SDS011;9945;46.010;8.946;2022-12-17T10:13:35;3.30;;;3.10;;
19595;SDS011;9945;46.010;8.946;2022-12-17T10:16:23;4.47;;;4.18;;
19595;SDS011;9945;46.010;8.946;2022-12-17T10:19:10;4.30;;;3.30;;
19595;SDS011;9945;46.010;8.946;2022-12-17T10:22:07;2.88;;;2.67;;
19595;SDS011;9945;46.010;8.946;2022-12-17T10:24:53;2.65;;;2.45;;
19595;SDS011;9945;46.010;8.946;2022-12-17T10:27:39;2.72;;;2.53;;
19595;SDS011;9945;46.010;8.946;2022-12-17T10:30:23;3.92;;;2.55;;
19595;SDS011;9945;46.010;8.946;2022-12-17T10:33:10;2.50;;;2.30;;
19595;SDS011;9945;46.010;8.946;2022-12-17T10:36:18;2.58;;;2.28;;
19595;SDS011;9945;46.010;8.946;2022-12-17T10:39:04;3.17;;;2.90;;
19595;SDS011;9945;46.010;8.946;2022-12-17T10:41:49;6.32;;;2.88;;
19595;SDS011;9945;46.010;8.946;2022-12-17T10:44:36;3.85;;;2.90;;
19595;SDS011;9945;46.010;8.946;2022-12-17T10:47:21;2.70;;;2.50;;
19595;SDS011;9945;46.010;8.946;2022-12-17T10:50:09;2.95;;;2.47;;
19595;SDS011;9945;46.010;8.946;2022-12-17T10:52:54;3.13;;;2.28;;
19595;SDS011;9945;46.010;8.946;2022-12-17T10:55:46;3.95;;;2.38;;
19595;SDS011;9945;46.010;8.946;2022-12-17T10:58:32;4.97;;;2.65;;
19595;SDS011;9945;46.010;8.946;2022-12-17T11:01:20;2.50;;;2.30;;
19595;SDS011;9945;46.010;8.946;2022-12-17T11:07:06;2.20;;;2.10;;
19595;SDS011;9945;46.010;8.946;2022-12-17T11:09:54;2.20;;;2.10;;
19595;SDS011;9945;46.010;8.946;2022-12-17T11:12:41;2.33;;;2.13;;
19595;SDS011;9945;46.010;8.946;2022-12-17T11:15:30;1.80;;;1.70;;
19595;SDS011;9945;46.010;8.946;2022-12-17T11:18:21;1.75;;;1.65;;
19595;SDS011;9945;46.010;8.946;2022-12-17T11:21:10;1.80;;;1.70;;
19595;SDS011;9945;46.010;8.946;2022-12-17T11:23:58;1.52;;;1.50;;
19595;SDS011;9945;46.010;8.946;2022-12-17T11:26:45;1.42;;;1.42;;
19595;SDS011;9945;46.010;8.946;2022-12-17T11:29:34;1.40;;;1.40;;
19595;SDS011;9945;46.010;8.946;2022-12-17T11:35:29;2.97;;;1.50;;
19595;SDS011;9945;46.010;8.946;2022-12-17T11:38:24;1.35;;;1.35;;
19595;SDS011;9945;46.010;8.946;2022-12-17T11:41:17;1.40;;;1.30;;
19595;SDS011;9945;46.010;8.946;2022-12-17T11:44:12;1.60;;;1.50;;
19595;SDS011;9945;46.010;8.946;2022-12-17T11:47:08;2.38;;;1.10;;
19595;SDS011;9945;46.010;8.946;2022-12-17T11:50:05;3.60;;;1.50;;
19595;SDS011;9945;46.010;8.946;2022-12-17T11:53:11;2.10;;;2.00;;
19595;SDS011;9945;46.010;8.946;2022-12-17T11:56:06;2.80;;;2.15;;
19595;SDS011;9945;46.010;8.946;2022-12-17T11:59:00;2.92;;;2.60;;
19595;SDS011;9945;46.010;8.946;2022-12-17T12:01:52;3.67;;;2.88;;
19595;SDS011;9945;46.010;8.946;2022-12-17T12:08:01;2.00;;;1.90;;
19595;SDS011;9945;46.010;8.946;2022-12-17T12:11:12;1.90;;;1.80;;
19595;SDS011;9945;46.010;8.946;2022-12-17T12:14:10;4.00;;;2.60;;
19595;SDS011;9945;46.010;8.946;2022-12-17T12:17:14;3.08;;;2.83;;
19595;SDS011;9945;46.010;8.946;2022-12-17T12:20:22;2.10;;;2.00;;
19595;SDS011;9945;46.010;8.946;2022-12-17T12:23:15;2.97;;;2.00;;
19595;SDS011;9945;46.010;8.946;2022-12-17T12:26:08;2.20;;;2.10;;
19595;SDS011;9945;46.010;8.946;2022-12-17T12:28:59;3.45;;;2.08;;
19595;SDS011;9945;46.010;8.946;2022-12-17T12:31:50;6.20;;;2.25;;
19595;SDS011;9945;46.010;8.946;2022-12-17T12:34:43;1.77;;;1.67;;
19595;SDS011;9945;46.010;8.946;2022-12-17T12:37:28;2.53;;;1.90;;
19595;SDS011;9945;46.010;8.946;2022-12-17T12:40:15;2.20;;;2.10;;
19595;SDS011;9945;46.010;8.946;2022-12-17T12:43:10;2.53;;;2.30;;
19595;SDS011;9945;46.010;8.946;2022-12-17T12:46:05;2.50;;;2.30;;
19595;SDS011;9945;46.010;8.946;2022-12-17T12:48:57;5.55;;;2.08;;
19595;SDS011;9945;46.010;8.946;2022-12-17T12:51:48;4.15;;;2.30;;
19595;SDS011;9945;46.010;8.946;2022-12-17T12:54:49;2.35;;;2.15;;
19595;SDS011;9945;46.010;8.946;2022-12-17T12:57:35;4.18;;;2.22;;
19595;SDS011;9945;46.010;8.946;2022-12-17T13:00:24;6.25;;;2.20;;
19595;SDS011;9945;46.010;8.946;2022-12-17T13:03:18;1.90;;;1.80;;
19595;SDS011;9945;46.010;8.946;2022-12-17T13:06:07;2.28;;;1.85;;
19595;SDS011;9945;46.010;8.946;2022-12-17T13:08:34;1.85;;;1.75;;
19595;SDS011;9945;46.010;8.946;2022-12-17T13:11:08;2.70;;;2.28;;
19595;SDS011;9945;46.010;8.946;2022-12-17T13:13:53;4.57;;;2.42;;
19595;SDS011;9945;46.010;8.946;2022-12-17T13:16:29;3.28;;;3.00;;
19595;SDS011;9945;46.010;8.946;2022-12-17T13:19:03;6.63;;;2.78;;
19595;SDS011;9945;46.010;8.946;2022-12-17T13:21:42;3.90;;;2.45;;
19595;SDS011;9945;46.010;8.946;2022-12-17T13:24:10;2.45;;;2.25;;
19595;SDS011;9945;46.010;8.946;2022-12-17T13:26:43;2.90;;;2.33;;
19595;SDS011;9945;46.010;8.946;2022-12-17T13:29:12;3.33;;;2.58;;
19595;SDS011;9945;46.010;8.946;2022-12-17T13:34:47;2.95;;;2.70;;
19595;SDS011;9945;46.010;8.946;2022-12-17T13:37:25;2.22;;;2.08;;
19595;SDS011;9945;46.010;8.946;2022-12-17T13:40:03;2.55;;;2.17;;
19595;SDS011;9945;46.010;8.946;2022-12-17T13:42:43;4.20;;;2.28;;
19595;SDS011;9945;46.010;8.946;2022-12-17T13:45:13;8.35;;;2.65;;
19595;SDS011;9945;46.010;8.946;2022-12-17T13:47:50;4.28;;;3.80;;
19595;SDS011;9945;46.010;8.946;2022-12-17T13:50:19;4.57;;;4.10;;
19595;SDS011;9945;46.010;8.946;2022-12-17T13:52:48;4.05;;;3.10;;
19595;SDS011;9945;46.010;8.946;2022-12-17T13:55:18;4.82;;;3.60;;
19595;SDS011;9945;46.010;8.946;2022-12-17T13:57:47;4.93;;;2.80;;
19595;SDS011;9945;46.010;8.946;2022-12-17T14:00:19;2.50;;;2.40;;
19595;SDS011;9945;46.010;8.946;2022-12-17T14:02:50;2.00;;;1.90;;
19595;SDS011;9945;46.010;8.946;2022-12-17T14:05:22;2.00;;;1.90;;
19595;SDS011;9945;46.010;8.946;2022-12-17T14:07:51;3.72;;;1.63;;
19595;SDS011;9945;46.010;8.946;2022-12-17T14:10:20;3.15;;;1.50;;
19595;SDS011;9945;46.010;8.946;2022-12-17T14:12:47;1.50;;;1.38;;
19595;SDS011;9945;46.010;8.946;2022-12-17T14:15:17;2.15;;;1.55;;
19595;SDS011;9945;46.010;8.946;2022-12-17T14:17:51;2.95;;;1.85;;
19595;SDS011;9945;46.010;8.946;2022-12-17T14:20:19;2.35;;;1.50;;
19595;SDS011;9945;46.010;8.946;2022-12-17T14:22:48;1.52;;;1.42;;
19595;SDS011;9945;46.010;8.946;2022-12-17T14:25:18;1.55;;;1.45;;
19595;SDS011;9945;46.010;8.946;2022-12-17T14:27:51;6.00;;;1.58;;
19595;SDS011;9945;46.010;8.946;2022-12-17T14:30:20;1.73;;;1.58;;
19595;SDS011;9945;46.010;8.946;2022-12-17T14:32:50;1.88;;;1.77;;
19595;SDS011;9945;46.010;8.946;2022-12-17T14:35:24;1.42;;;1.33;;
19595;SDS011;9945;46.010;8.946;2022-12-17T14:37:52;1.58;;;1.48;;
19595;SDS011;9945;46.010;8.946;2022-12-17T14:40:20;1.85;;;1.45;;
19595;SDS011;9945;46.010;8.946;2022-12-17T14:42:49;2.88;;;1.63;;
19595;SDS011;9945;46.010;8.946;2022-12-17T14:45:21;3.03;;;1.75;;
19595;SDS011;9945;46.010;8.946;2022-12-17T14:47:54;3.42;;;1.30;;
19595;SDS011;9945;46.010;8.946;2022-12-17T14:50:24;1.75;;;1.65;;
19595;SDS011;9945;46.010;8.946;2022-12-17T14:52:54;1.83;;;1.25;;
19595;SDS011;9945;46.010;8.946;2022-12-17T14:55:29;5.78;;;1.88;;
19595;SDS011;9945;46.010;8.946;2022-12-17T14:58:06;2.50;;;1.83;;
19595;SDS011;9945;46.010;8.946;2022-12-17T15:00:36;1.52;;;1.38;;
19595;SDS011;9945;46.010;8.946;2022-12-17T15:03:07;1.42;;;1.33;;
19595;SDS011;9945;46.010;8.946;2022-12-17T15:05:36;1.50;;;1.40;;
19595;SDS011;9945;46.010;8.946;2022-12-17T15:08:04;2.57;;;1.70;;
19595;SDS011;9945;46.010;8.946;2022-12-17T15:10:31;1.80;;;1.70;;
19595;SDS011;9945;46.010;8.946;2022-12-17T15:12:59;1.80;;;1.70;;
19595;SDS011;9945;46.010;8.946;2022-12-17T15:15:26;2.00;;;1.90;;
19595;SDS011;9945;46.010;8.946;2022-12-17T15:17:53;1.90;;;1.80;;
19595;SDS011;9945;46.010;8.946;2022-12-17T15:20:21;1.60;;;1.50;;
19595;SDS011;9945;46.010;8.946;2022-12-17T15:22:48;1.80;;;1.70;;
19595;SDS011;9945;46.010;8.946;2022-12-17T15:25:15;2.10;;;1.90;;
19595;SDS011;9945;46.010;8.946;2022-12-17T15:27:44;2.30;;;2.10;;
19595;SDS011;9945;46.010;8.946;2022-12-17T15:30:12;1.83;;;1.70;;
19595;SDS011;9945;46.010;8.946;2022-12-17T15:32:40;2.20;;;1.97;;
19595;SDS011;9945;46.010;8.946;2022-12-17T15:35:08;1.90;;;1.80;;
19595;SDS011;9945;46.010;8.946;2022-12-17T15:37:37;2.13;;;1.93;;
19595;SDS011;9945;46.010;8.946;2022-12-17T15:40:05;2.20;;;2.10;;
19595;SDS011;9945;46.010;8.946;2022-12-17T15:42:34;2.60;;;2.40;;
19595;SDS011;9945;46.010;8.946;2022-12-17T15:45:19;2.50;;;2.27;;
19595;SDS011;9945;46.010;8.946;2022-12-17T15:47:46;2.37;;;2.17;;
19595;SDS011;9945;46.010;8.946;2022-12-17T15:50:13;5.47;;;1.97;;
19595;SDS011;9945;46.010;8.946;2022-12-17T15:52:41;5.90;;;2.00;;
19595;SDS011;9945;46.010;8.946;2022-12-17T15:55:08;2.40;;;2.20;;
19595;SDS011;9945;46.010;8.946;2022-12-17T15:57:35;4.37;;;2.83;;
19595;SDS011;9945;46.010;8.946;2022-12-17T16:00:02;4.60;;;3.80;;
19595;SDS011;9945;46.010;8.946;2022-12-17T16:02:30;3.17;;;2.87;;
19595;SDS011;9945;46.010;8.946;2022-12-17T16:04:57;3.03;;;2.83;;
19595;SDS011;9945;46.010;8.946;2022-12-17T16:07:24;3.90;;;2.83;;
19595;SDS011;9945;46.010;8.946;2022-12-17T16:09:52;3.33;;;3.03;;
19595;SDS011;9945;46.010;8.946;2022-12-17T16:12:19;9.50;;;3.70;;
19595;SDS011;9945;46.010;8.946;2022-12-17T16:14:46;4.10;;;3.70;;
19595;SDS011;9945;46.010;8.946;2022-12-17T16:17:13;6.13;;;3.70;;
19595;SDS011;9945;46.010;8.946;2022-12-17T16:19:40;3.83;;;3.53;;
19595;SDS011;9945;46.010;8.946;2022-12-17T16:22:07;9.33;;;3.63;;
19595;SDS011;9945;46.010;8.946;2022-12-17T16:24:34;4.20;;;3.53;;
19595;SDS011;9945;46.010;8.946;2022-12-17T16:27:02;5.53;;;3.60;;
19595;SDS011;9945;46.010;8.946;2022-12-17T16:29:29;3.37;;;3.10;;
19595;SDS011;9945;46.010;8.946;2022-12-17T16:31:56;3.60;;;3.30;;
19595;SDS011;9945;46.010;8.946;2022-12-17T16:34:23;5.07;;;3.63;;
19595;SDS011;9945;46.010;8.946;2022-12-17T16:36:49;4.10;;;3.70;;